createdAt,value
2022-12-25T00:00:51.787Z,0.20
2022-12-25T00:03:56.810Z,0.19
2022-12-25T00:06:59.769Z,0.11
2022-12-25T00:10:02.406Z,-0.14
2022-12-25T00:13:04.873Z,0.11
2022-12-25T00:16:09.111Z,-0.14
2022-12-25T00:19:12.756Z,-0.12
2022-12-25T00:22:15.201Z,-0.17
2022-12-25T00:25:17.650Z,-0.24
2022-12-25T00:28:20.966Z,-0.39
2022-12-25T00:31:24.918Z,-0.05
2022-12-25T00:34:27.541Z,-0.05
2022-12-25T00:37:30.100Z,-0.21
2022-12-25T00:40:32.530Z,-0.32
2022-12-25T00:43:36.269Z,-0.52
2022-12-25T00:46:38.870Z,-0.45
2022-12-25T00:49:41.509Z,-0.43
2022-12-25T00:52:44.349Z,-0.11
2022-12-25T00:55:55.069Z,0.05
2022-12-25T00:58:57.546Z,0.03
2022-12-25T01:02:20.160Z,0.22
2022-12-25T01:05:22.655Z,-0.05
2022-12-25T01:08:26.132Z,-0.02
2022-12-25T01:11:28.810Z,0.16
2022-12-25T01:14:31.189Z,0.26
2022-12-25T01:17:34.027Z,0.17
2022-12-25T01:20:36.420Z,0.53
2022-12-25T01:23:38.935Z,0.44
2022-12-25T01:26:41.304Z,0.37
2022-12-25T01:29:45.246Z,0.48
2022-12-25T01:32:47.570Z,0.38
2022-12-25T01:35:49.953Z,0.05
2022-12-25T01:38:54.112Z,0.14
2022-12-25T01:41:56.863Z,-0.16
2022-12-25T01:45:32.317Z,0.02
2022-12-25T01:48:39.092Z,-0.12
2022-12-25T01:51:47.520Z,0.24
2022-12-25T01:54:55.824Z,0.34
2022-12-25T01:57:58.523Z,0.23
2022-12-25T02:01:01.065Z,0.21
2022-12-25T02:04:16.493Z,0.38
2022-12-25T02:07:22.204Z,0.43
2022-12-25T02:10:25.060Z,0.58
2022-12-25T02:13:27.522Z,0.27
2022-12-25T02:16:35.553Z,-0.05
2022-12-25T02:20:16.480Z,0.12
2022-12-25T02:23:21.546Z,0.06
2022-12-25T02:26:39.194Z,0.16
2022-12-25T02:29:53.498Z,-0.11
2022-12-25T02:33:21.356Z,-0.22
2022-12-25T02:36:29.502Z,-0.65
2022-12-25T02:40:00.546Z,-0.42
2022-12-25T02:43:25.477Z,-0.44
2022-12-25T02:46:49.892Z,-0.70
2022-12-25T02:50:12.697Z,-0.57
2022-12-25T02:53:33.581Z,-0.65
2022-12-25T02:56:56.260Z,-0.85
2022-12-25T03:00:20.079Z,-0.52
2022-12-25T03:03:44.397Z,-0.75
2022-12-25T03:07:09.922Z,-0.38
2022-12-25T03:10:33.658Z,-0.36
2022-12-25T03:13:40.103Z,-0.65
2022-12-25T03:16:50.822Z,-0.61
2022-12-25T03:20:12.144Z,-0.88
2022-12-25T03:23:36.784Z,-0.89
2022-12-25T03:26:57.888Z,-0.77
2022-12-25T03:30:19.360Z,-0.75
2022-12-25T03:33:44.890Z,-0.95
2022-12-25T03:37:24.972Z,-0.76
2022-12-25T03:41:14.678Z,-0.61
2022-12-25T03:44:38.452Z,-0.54
2022-12-25T03:48:05.840Z,-0.67
2022-12-25T03:51:31.487Z,-0.92
2022-12-25T03:54:55.594Z,-0.98
2022-12-25T03:58:16.257Z,-0.82
2022-12-25T04:01:37.413Z,-0.77
2022-12-25T04:04:58.109Z,-0.79
2022-12-25T04:08:18.890Z,-0.41
2022-12-25T04:11:39.476Z,-0.53
2022-12-25T04:15:00.049Z,-0.81
2022-12-25T04:18:20.676Z,-0.83
2022-12-25T04:21:42.361Z,-0.37
2022-12-25T04:25:03.207Z,-0.46
2022-12-25T04:28:24.539Z,-0.25
2022-12-25T04:31:45.853Z,-0.77
2022-12-25T04:35:06.733Z,-0.53
2022-12-25T04:38:09.146Z,-0.64
2022-12-25T04:41:13.510Z,-0.69
2022-12-25T04:44:15.927Z,-0.88
2022-12-25T04:47:18.334Z,-0.87
2022-12-25T04:50:20.688Z,-0.80
2022-12-25T04:53:23.392Z,-0.75
2022-12-25T04:56:25.749Z,-1.00
2022-12-25T04:59:28.297Z,-1.07
2022-12-25T05:02:31.564Z,-1.09
2022-12-25T05:05:34.061Z,-1.04
2022-12-25T05:08:37.394Z,-1.23
2022-12-25T05:11:39.796Z,-0.98
2022-12-25T05:14:42.293Z,-0.61
2022-12-25T05:17:44.625Z,-0.14
2022-12-25T05:20:54.193Z,0.00
2022-12-25T05:23:56.601Z,-0.06
2022-12-25T05:26:58.918Z,-0.06
2022-12-25T05:30:01.364Z,-0.09
2022-12-25T05:33:03.866Z,-0.21
2022-12-25T05:36:08.734Z,-0.26
2022-12-25T05:39:11.086Z,-0.33
2022-12-25T05:42:13.499Z,-0.55
2022-12-25T05:45:15.870Z,-0.19
2022-12-25T05:48:18.438Z,-0.37
2022-12-25T05:51:20.877Z,-0.47
2022-12-25T05:54:23.292Z,-0.61
2022-12-25T05:57:28.633Z,-0.91
2022-12-25T06:00:31.086Z,-0.77
2022-12-25T06:03:33.484Z,-0.90
2022-12-25T06:06:35.905Z,-1.02
2022-12-25T06:09:38.325Z,-0.89
2022-12-25T06:12:40.761Z,-0.84
2022-12-25T06:15:43.146Z,-1.02
2022-12-25T06:18:48.405Z,-1.09
2022-12-25T06:21:54.542Z,-0.77
2022-12-25T06:24:57.104Z,-0.97
2022-12-25T06:27:59.458Z,-0.83
2022-12-25T06:31:22.392Z,-0.92
2022-12-25T06:34:25.026Z,-1.22
2022-12-25T06:37:27.384Z,-1.08
2022-12-25T06:40:29.937Z,-1.20
2022-12-25T06:43:32.264Z,-0.90
2022-12-25T06:46:34.805Z,-0.63
2022-12-25T06:49:37.235Z,-0.53
2022-12-25T06:52:39.643Z,-0.57
2022-12-25T06:55:41.998Z,-0.88
2022-12-25T06:58:45.901Z,-0.70
2022-12-25T07:01:50.747Z,-0.63
2022-12-25T07:04:53.924Z,-0.93
2022-12-25T07:07:56.280Z,-0.80
2022-12-25T07:10:58.650Z,-0.42
2022-12-25T07:14:01.043Z,-0.74
2022-12-25T07:17:03.419Z,-0.30
2022-12-25T07:20:07.053Z,-0.29
2022-12-25T07:23:09.477Z,-0.29
2022-12-25T07:26:13.221Z,-0.39
2022-12-25T07:29:16.252Z,-0.20
2022-12-25T07:32:18.649Z,0.83
2022-12-25T07:35:20.957Z,2.50
2022-12-25T07:38:23.432Z,3.78
2022-12-25T07:41:26.048Z,4.28
2022-12-25T07:44:40.181Z,4.96
2022-12-25T07:47:43.385Z,5.26
2022-12-25T07:50:45.753Z,6.06
2022-12-25T07:53:48.140Z,6.16
2022-12-25T07:56:52.383Z,6.67
2022-12-25T07:59:54.781Z,6.85
2022-12-25T08:02:57.252Z,6.82
2022-12-25T08:06:01.816Z,6.88
2022-12-25T08:09:09.778Z,7.66
2022-12-25T08:12:12.212Z,8.18
2022-12-25T08:15:14.676Z,8.02
2022-12-25T08:18:17.025Z,8.25
2022-12-25T08:21:19.530Z,8.33
2022-12-25T08:24:22.620Z,8.71
2022-12-25T08:27:25.012Z,9.19
2022-12-25T08:30:28.344Z,9.72
2022-12-25T08:33:30.900Z,9.87
2022-12-25T08:36:33.313Z,10.30
2022-12-25T08:39:35.869Z,10.46
2022-12-25T08:42:38.345Z,10.25
2022-12-25T08:45:40.833Z,10.78
2022-12-25T08:48:45.514Z,11.06
2022-12-25T08:51:47.976Z,11.85
2022-12-25T08:54:50.836Z,12.31
2022-12-25T08:57:54.278Z,12.80
2022-12-25T09:00:56.964Z,13.26
2022-12-25T09:03:59.432Z,13.81
2022-12-25T09:07:02.707Z,13.29
2022-12-25T09:10:05.636Z,14.06
2022-12-25T09:13:08.481Z,13.83
2022-12-25T09:16:14.861Z,14.21
2022-12-25T09:19:17.395Z,14.39
2022-12-25T09:22:19.805Z,14.48
2022-12-25T09:25:22.335Z,14.80
2022-12-25T09:28:24.968Z,14.72
2022-12-25T09:31:27.468Z,14.85
2022-12-25T09:34:29.936Z,15.22
2022-12-25T09:37:32.307Z,15.18
2022-12-25T09:40:35.198Z,15.40
2022-12-25T09:43:42.350Z,15.02
2022-12-25T09:46:52.993Z,13.64
2022-12-25T09:50:08.038Z,12.71
2022-12-25T09:53:18.534Z,14.48
2022-12-25T09:56:25.965Z,14.96
2022-12-25T09:59:28.436Z,15.16
2022-12-25T10:03:01.900Z,15.69
2022-12-25T10:06:18.123Z,15.36
2022-12-25T10:09:33.519Z,15.92
2022-12-25T10:13:03.067Z,15.49
2022-12-25T10:16:20.348Z,15.75
2022-12-25T10:19:37.078Z,14.63
2022-12-25T10:22:46.592Z,15.45
2022-12-25T10:25:49.068Z,16.33
2022-12-25T10:29:01.179Z,16.45
2022-12-25T10:32:04.214Z,16.23
2022-12-25T10:35:10.793Z,15.30
2022-12-25T10:38:15.936Z,15.99
2022-12-25T10:41:32.325Z,16.13
2022-12-25T10:44:34.919Z,16.28
2022-12-25T10:47:42.697Z,15.49
2022-12-25T10:50:45.269Z,15.69
2022-12-25T10:53:47.674Z,15.92
2022-12-25T10:57:09.569Z,16.22
2022-12-25T11:00:23.962Z,17.25
2022-12-25T11:03:35.312Z,17.29
2022-12-25T11:06:37.866Z,17.65
2022-12-25T11:09:40.524Z,16.88
2022-12-25T11:12:45.524Z,17.11
2022-12-25T11:15:49.481Z,16.71
2022-12-25T11:18:54.383Z,16.71
2022-12-25T11:21:59.685Z,16.67
2022-12-25T11:25:13.617Z,15.34
2022-12-25T11:28:16.028Z,15.82
2022-12-25T11:31:22.086Z,15.45
2022-12-25T11:34:45.188Z,15.91
2022-12-25T11:37:53.806Z,15.47
2022-12-25T11:41:00.253Z,13.98
2022-12-25T11:44:11.596Z,13.31
2022-12-25T11:47:21.634Z,13.70
2022-12-25T11:50:37.829Z,14.39
2022-12-25T11:53:47.366Z,14.45
2022-12-25T11:56:50.331Z,14.43
2022-12-25T12:00:00.268Z,14.38
2022-12-25T12:03:28.170Z,13.65
2022-12-25T12:06:40.105Z,13.26
2022-12-25T12:09:48.536Z,13.53
2022-12-25T12:13:16.979Z,13.11
2022-12-25T12:16:19.456Z,13.16
2022-12-25T12:19:28.216Z,13.60
2022-12-25T12:22:30.612Z,14.00
2022-12-25T12:25:40.138Z,14.44
2022-12-25T12:28:46.813Z,14.48
2022-12-25T12:31:51.569Z,12.60
2022-12-25T12:34:54.917Z,12.96
2022-12-25T12:38:14.920Z,12.66
2022-12-25T12:41:18.223Z,12.52
2022-12-25T12:44:25.040Z,12.65
2022-12-25T12:47:48.524Z,12.62
2022-12-25T12:51:02.997Z,12.70
2022-12-25T12:54:23.686Z,12.70
2022-12-25T12:57:29.813Z,12.38
2022-12-25T13:00:46.787Z,12.25
2022-12-25T13:04:10.765Z,11.54
2022-12-25T13:07:43.983Z,10.27
2022-12-25T13:11:19.417Z,8.66
2022-12-25T13:14:23.916Z,7.75
2022-12-25T13:17:28.346Z,7.14
2022-12-25T13:20:55.409Z,6.82
2022-12-25T13:24:00.851Z,6.69
2022-12-25T13:27:24.738Z,7.11
2022-12-25T13:30:28.013Z,6.71
2022-12-25T13:33:30.585Z,6.36
2022-12-25T13:36:38.493Z,6.04
2022-12-25T13:40:02.001Z,5.72
2022-12-25T13:43:05.063Z,5.59
2022-12-25T13:46:07.524Z,5.81
2022-12-25T13:49:21.709Z,5.71
2022-12-25T13:52:24.287Z,5.50
2022-12-25T13:55:28.919Z,5.41
2022-12-25T13:58:34.982Z,5.13
2022-12-25T14:01:43.121Z,4.83
2022-12-25T14:04:45.737Z,4.85
2022-12-25T14:07:53.549Z,5.15
2022-12-25T14:10:57.063Z,5.73
2022-12-25T14:14:04.066Z,5.89
2022-12-25T14:17:06.552Z,5.75
2022-12-25T14:20:24.248Z,5.37
2022-12-25T14:23:27.569Z,4.68
2022-12-25T14:26:33.498Z,4.55
2022-12-25T14:29:44.196Z,4.10
2022-12-25T14:32:52.779Z,3.51
2022-12-25T14:35:56.519Z,3.28
2022-12-25T14:39:07.443Z,3.37
2022-12-25T14:42:20.428Z,3.09
2022-12-25T14:45:38.527Z,3.10
2022-12-25T14:48:41.209Z,3.32
2022-12-25T14:51:43.688Z,3.03
2022-12-25T14:54:51.835Z,3.09
2022-12-25T14:58:07.741Z,2.83
2022-12-25T15:01:21.239Z,2.48
2022-12-25T15:04:24.988Z,2.25
2022-12-25T15:07:31.518Z,2.18
2022-12-25T15:13:58.383Z,1.89
2022-12-25T15:17:01.713Z,2.12
2022-12-25T15:20:05.434Z,2.28
2022-12-25T15:23:20.996Z,2.17
2022-12-25T15:26:25.025Z,2.42
2022-12-25T15:30:07.381Z,2.23
2022-12-25T15:32:50.408Z,2.11
2022-12-25T15:35:52.837Z,1.95
2022-12-25T15:38:55.798Z,2.09
2022-12-25T15:42:12.025Z,1.95
2022-12-25T15:45:22.045Z,2.09
2022-12-25T15:48:24.433Z,1.99
2022-12-25T15:51:26.840Z,1.86
2022-12-25T15:54:30.103Z,1.66
2022-12-25T15:57:33.358Z,1.74
2022-12-25T16:00:35.912Z,1.67
2022-12-25T16:03:38.401Z,1.77
2022-12-25T16:06:41.069Z,1.69
2022-12-25T16:09:43.964Z,1.84
2022-12-25T16:12:46.954Z,1.85
2022-12-25T16:15:49.401Z,2.02
2022-12-25T16:18:51.776Z,1.89
2022-12-25T16:21:54.213Z,2.01
2022-12-25T16:24:57.777Z,2.13
2022-12-25T16:28:00.181Z,2.07
2022-12-25T16:31:02.589Z,2.00
2022-12-25T16:34:06.656Z,2.17
2022-12-25T16:37:09.034Z,2.16
2022-12-25T16:40:11.642Z,2.21
2022-12-25T16:43:20.308Z,2.04
2022-12-25T16:46:26.133Z,1.76
2022-12-25T16:49:28.517Z,1.71
2022-12-25T16:52:33.102Z,1.77
2022-12-25T16:55:37.715Z,1.79
2022-12-25T16:58:41.226Z,1.67
2022-12-25T17:01:43.796Z,1.74
2022-12-25T17:04:47.282Z,1.50
2022-12-25T17:07:49.750Z,1.68
2022-12-25T17:10:52.186Z,1.51
2022-12-25T17:13:55.405Z,1.66
2022-12-25T17:16:57.869Z,1.47
2022-12-25T17:20:00.403Z,1.35
2022-12-25T17:23:02.737Z,1.65
2022-12-25T17:26:06.340Z,1.52
2022-12-25T17:29:08.785Z,1.55
2022-12-25T17:32:12.646Z,1.50
2022-12-25T17:35:15.083Z,1.56
2022-12-25T17:38:17.509Z,1.45
2022-12-25T17:41:20.819Z,1.46
2022-12-25T17:44:23.548Z,1.22
2022-12-25T17:47:26.281Z,0.86
2022-12-25T17:50:28.828Z,1.37
2022-12-25T17:53:31.471Z,1.07
2022-12-25T17:56:34.083Z,1.27
2022-12-25T17:59:36.820Z,1.03
2022-12-25T18:02:40.101Z,1.43
2022-12-25T18:05:42.728Z,1.43
2022-12-25T18:08:46.508Z,1.40
2022-12-25T18:11:48.930Z,1.37
2022-12-25T18:14:51.466Z,1.49
2022-12-25T18:17:53.793Z,1.69
2022-12-25T18:20:56.152Z,1.60
2022-12-25T18:23:58.582Z,1.63
2022-12-25T18:27:00.969Z,1.59
2022-12-25T18:30:04.198Z,1.69
2022-12-25T18:33:06.733Z,1.44
2022-12-25T18:36:11.935Z,1.51
2022-12-25T18:39:14.620Z,1.58
2022-12-25T18:42:35.219Z,1.56
2022-12-25T18:45:37.852Z,1.45
2022-12-25T18:48:41.164Z,1.62
2022-12-25T18:51:43.693Z,1.66
2022-12-25T18:54:46.132Z,1.60
2022-12-25T18:57:49.480Z,1.41
2022-12-25T19:00:52.807Z,1.39
2022-12-25T19:04:02.074Z,1.45
2022-12-25T19:07:07.302Z,1.55
2022-12-25T19:10:10.494Z,1.31
2022-12-25T19:13:12.986Z,1.40
2022-12-25T19:16:15.922Z,1.50
2022-12-25T19:19:21.539Z,1.44
2022-12-25T19:22:24.233Z,1.39
2022-12-25T19:25:27.796Z,1.49
2022-12-25T19:28:30.382Z,1.29
2022-12-25T19:31:33.065Z,1.34
2022-12-25T19:34:35.807Z,1.62
2022-12-25T19:37:38.339Z,1.68
2022-12-25T19:40:40.848Z,1.78
2022-12-25T19:43:47.435Z,1.62
2022-12-25T19:46:50.074Z,1.69
2022-12-25T19:49:53.329Z,1.57
2022-12-25T19:52:56.530Z,1.38
2022-12-25T19:56:02.109Z,1.57
2022-12-25T19:59:04.572Z,1.46
2022-12-25T20:02:07.180Z,1.28
2022-12-25T20:05:09.796Z,1.47
2022-12-25T20:08:12.215Z,1.29
2022-12-25T20:11:19.537Z,1.50
2022-12-25T20:14:22.229Z,1.49
2022-12-25T20:17:24.793Z,1.52
2022-12-25T20:20:27.151Z,1.36
2022-12-25T20:23:29.947Z,1.37
2022-12-25T20:26:32.424Z,1.42
2022-12-25T20:29:41.597Z,1.56
2022-12-25T20:32:50.122Z,1.59
2022-12-25T20:35:53.067Z,1.68
2022-12-25T20:38:55.477Z,1.47
2022-12-25T20:41:57.858Z,1.63
2022-12-25T20:45:00.435Z,1.81
2022-12-25T20:48:05.100Z,1.78
2022-12-25T20:51:14.345Z,1.86
2022-12-25T20:54:16.684Z,2.06
2022-12-25T20:57:19.266Z,1.97
2022-12-25T21:00:22.953Z,2.10
2022-12-25T21:03:25.512Z,2.07
2022-12-25T21:06:28.022Z,1.99
2022-12-25T21:09:30.677Z,1.96
2022-12-25T21:12:33.080Z,2.44
2022-12-25T21:15:35.437Z,2.14
2022-12-25T21:18:38.171Z,2.19
2022-12-25T21:21:43.077Z,2.31
2022-12-25T21:24:45.443Z,2.24
2022-12-25T21:27:47.842Z,2.24
2022-12-25T21:30:50.224Z,2.16
2022-12-25T21:33:54.395Z,2.19
2022-12-25T21:36:56.929Z,1.96
2022-12-25T21:39:59.881Z,2.04
2022-12-25T21:43:02.358Z,2.07
2022-12-25T21:46:10.171Z,2.14
2022-12-25T21:49:12.624Z,2.40
2022-12-25T21:52:14.951Z,2.42
2022-12-25T21:55:17.337Z,2.30
2022-12-25T21:58:19.704Z,2.60
2022-12-25T22:01:22.192Z,2.36
2022-12-25T22:04:25.066Z,1.98
2022-12-25T22:07:27.532Z,2.51
2022-12-25T22:10:31.101Z,2.74
2022-12-25T22:13:51.964Z,2.50
2022-12-25T22:17:12.549Z,2.72
2022-12-25T22:20:18.230Z,2.78
2022-12-25T22:23:20.630Z,2.92
2022-12-25T22:26:22.970Z,2.79
2022-12-25T22:29:25.766Z,2.81
2022-12-25T22:32:28.843Z,2.82
2022-12-25T22:35:31.267Z,2.78
2022-12-25T22:38:34.342Z,2.89
2022-12-25T22:41:36.723Z,3.03
2022-12-25T22:44:39.228Z,3.00
2022-12-25T22:47:41.958Z,3.00
2022-12-25T22:50:44.401Z,2.91
2022-12-25T22:53:46.731Z,2.73
2022-12-25T22:56:51.373Z,3.02
2022-12-25T22:59:53.874Z,2.80
2022-12-25T23:02:56.413Z,2.73
2022-12-25T23:05:58.898Z,2.95
2022-12-25T23:09:01.391Z,2.81
2022-12-25T23:12:04.238Z,2.94
2022-12-25T23:15:07.132Z,3.01
2022-12-25T23:18:28.352Z,3.04
2022-12-25T23:21:49.557Z,2.91
2022-12-25T23:25:10.093Z,3.05
2022-12-25T23:28:12.443Z,2.86
2022-12-25T23:31:22.586Z,3.11
2022-12-25T23:34:24.999Z,3.09
2022-12-25T23:37:27.347Z,3.22
2022-12-25T23:40:33.625Z,3.08
2022-12-25T23:43:36.204Z,3.05
2022-12-25T23:46:39.700Z,3.21
2022-12-25T23:49:42.239Z,3.24
2022-12-25T23:52:45.144Z,2.99
2022-12-25T23:55:55.070Z,3.28
2022-12-25T23:58:58.198Z,3.20
